Metar

!!! Benutzen Sie f├╝r Ihre Flugvorbereitung die offiziellen Quellen !!!

Metar:

EDQM 181850Z 12005KT CAVOK 21/12 Q1015

QNH: 1015
Temperatur: 21
Dew Point : 12

 

METAR (decoded)